createdAt,value
2022-09-10T00:00:05.466Z,6.88
2022-09-10T00:02:38.685Z,6.55
2022-09-10T00:05:09.847Z,6.10
2022-09-10T00:07:37.623Z,5.38
2022-09-10T00:10:07.028Z,5.60
2022-09-10T00:12:35.212Z,5.90
2022-09-10T00:15:02.859Z,6.40
2022-09-10T00:17:32.971Z,6.30
2022-09-10T00:20:00.536Z,6.25
2022-09-10T00:22:28.139Z,5.25
2022-09-10T00:24:57.571Z,5.78
2022-09-10T00:27:26.670Z,5.35
2022-09-10T00:29:55.364Z,5.75
2022-09-10T00:32:23.446Z,5.63
2022-09-10T00:34:51.067Z,6.05
2022-09-10T00:37:19.108Z,5.18
2022-09-10T00:39:47.226Z,6.47
2022-09-10T00:42:15.584Z,5.45
2022-09-10T00:45:01.570Z,5.35
2022-09-10T00:47:34.641Z,6.57
2022-09-10T00:50:07.053Z,6.20
2022-09-10T00:52:39.628Z,6.18
2022-09-10T00:55:09.523Z,7.35
2022-09-10T00:57:38.023Z,5.68
2022-09-10T01:00:11.612Z,7.38
2022-09-10T01:02:39.686Z,6.45
2022-09-10T01:05:09.947Z,6.00
2022-09-10T01:07:38.058Z,5.43
2022-09-10T01:10:09.425Z,5.95
2022-09-10T01:12:50.974Z,5.53
2022-09-10T01:15:27.746Z,4.38
2022-09-10T01:18:08.745Z,6.60
2022-09-10T01:21:01.358Z,6.78
2022-09-10T01:23:54.671Z,7.27
2022-09-10T01:26:36.682Z,8.38
2022-09-10T01:29:10.982Z,5.40
2022-09-10T01:31:48.349Z,6.60
2022-09-10T01:34:21.351Z,6.20
2022-09-10T01:36:53.756Z,5.38
2022-09-10T01:39:25.374Z,7.65
2022-09-10T01:41:55.364Z,6.30
2022-09-10T01:44:45.771Z,6.95
2022-09-10T01:47:27.582Z,5.32
2022-09-10T01:50:12.098Z,5.78
2022-09-10T01:52:51.497Z,5.97
2022-09-10T01:55:34.967Z,7.10
2022-09-10T01:58:13.845Z,5.88
2022-09-10T02:00:58.177Z,7.15
2022-09-10T02:03:27.948Z,5.32
2022-09-10T02:05:57.707Z,5.38
2022-09-10T02:08:30.982Z,5.95
2022-09-10T02:11:01.283Z,7.05
2022-09-10T02:13:34.799Z,5.07
2022-09-10T02:16:22.792Z,7.85
2022-09-10T02:18:51.201Z,5.28
2022-09-10T02:21:19.290Z,4.80
2022-09-10T02:23:52.267Z,5.85
2022-09-10T02:26:20.118Z,4.80
2022-09-10T02:28:49.601Z,6.40
2022-09-10T02:31:19.519Z,4.85
2022-09-10T02:33:47.085Z,5.00
2022-09-10T02:36:14.694Z,4.43
2022-09-10T02:38:42.365Z,6.25
2022-09-10T02:41:10.366Z,4.32
2022-09-10T02:43:38.730Z,4.95
2022-09-10T02:46:07.846Z,6.95
2022-09-10T02:48:39.922Z,4.93
2022-09-10T02:51:09.011Z,5.55
2022-09-10T02:53:38.116Z,5.40
2022-09-10T02:56:07.669Z,6.78
2022-09-10T02:58:37.359Z,5.65
2022-09-10T03:01:08.534Z,5.13
2022-09-10T03:03:36.451Z,7.82
2022-09-10T03:06:06.251Z,3.83
2022-09-10T03:08:34.297Z,5.53
2022-09-10T03:11:04.349Z,5.80
2022-09-10T03:16:02.438Z,5.40
2022-09-10T03:18:30.933Z,4.53
2022-09-10T03:21:10.985Z,4.60
2022-09-10T03:23:40.297Z,7.00
2022-09-10T03:26:09.656Z,5.65
2022-09-10T03:28:38.546Z,4.90
2022-09-10T03:31:09.186Z,7.38
2022-09-10T03:33:43.133Z,7.10
2022-09-10T03:36:13.164Z,9.45
2022-09-10T03:38:43.335Z,5.80
2022-09-10T03:41:11.556Z,5.65
2022-09-10T03:43:39.726Z,5.63
2022-09-10T03:46:11.901Z,6.95
2022-09-10T03:48:41.180Z,5.17
2022-09-10T03:51:10.811Z,5.72
2022-09-10T03:53:40.717Z,5.80
2022-09-10T03:56:09.436Z,6.70
2022-09-10T03:58:37.334Z,6.03
2022-09-10T04:01:05.823Z,7.90
2022-09-10T04:06:04.971Z,6.75
2022-09-10T04:08:32.769Z,4.55
2022-09-10T04:11:04.599Z,4.55
2022-09-10T04:13:33.466Z,8.00
2022-09-10T04:16:01.809Z,7.32
2022-09-10T04:18:32.013Z,5.85
2022-09-10T04:20:59.635Z,5.35
2022-09-10T04:23:27.420Z,4.93
2022-09-10T04:25:55.110Z,7.28
2022-09-10T04:28:24.695Z,7.05
2022-09-10T04:30:52.968Z,6.35
2022-09-10T04:33:24.914Z,6.70
2022-09-10T04:35:53.525Z,5.95
2022-09-10T04:38:21.291Z,7.05
2022-09-10T04:40:50.382Z,7.43
2022-09-10T04:43:18.847Z,6.30
2022-09-10T04:45:47.808Z,7.03
2022-09-10T04:48:16.167Z,6.38
2022-09-10T04:51:05.481Z,6.30
2022-09-10T04:53:38.479Z,5.65
2022-09-10T04:56:06.527Z,6.70
2022-09-10T04:58:39.042Z,6.47
2022-09-10T05:01:09.139Z,5.65
2022-09-10T05:03:37.042Z,7.28
2022-09-10T05:06:05.123Z,5.50
2022-09-10T05:08:33.402Z,5.80
2022-09-10T05:11:02.752Z,6.45
2022-09-10T05:13:31.567Z,5.88
2022-09-10T05:16:01.531Z,5.63
2022-09-10T05:18:31.118Z,5.18
2022-09-10T05:20:58.692Z,5.43
2022-09-10T05:23:27.745Z,4.70
2022-09-10T05:25:56.693Z,5.20
2022-09-10T05:28:24.794Z,6.93
2022-09-10T05:30:53.123Z,5.50
2022-09-10T05:33:23.800Z,3.83
2022-09-10T05:35:52.871Z,5.28
2022-09-10T05:38:22.005Z,5.90
2022-09-10T05:40:51.067Z,6.70
2022-09-10T05:43:18.826Z,4.93
2022-09-10T05:45:47.142Z,5.72
2022-09-10T05:48:15.529Z,6.43
2022-09-10T05:50:45.469Z,4.25
2022-09-10T05:53:14.946Z,5.18
2022-09-10T05:55:43.839Z,3.75
2022-09-10T05:58:13.478Z,5.45
2022-09-10T06:00:43.924Z,5.75
2022-09-10T06:03:12.650Z,5.35
2022-09-10T06:05:50.224Z,6.30
2022-09-10T06:08:22.239Z,6.35
2022-09-10T06:10:58.557Z,6.20
2022-09-10T06:13:28.438Z,6.00
2022-09-10T06:15:57.416Z,6.45
2022-09-10T06:18:27.191Z,6.78
2022-09-10T06:21:03.285Z,6.50
2022-09-10T06:23:32.298Z,9.45
2022-09-10T06:26:05.083Z,5.60
2022-09-10T06:28:35.471Z,5.22
2022-09-10T06:31:05.522Z,5.97
2022-09-10T06:33:35.702Z,7.05
2022-09-10T06:36:04.667Z,6.25
2022-09-10T06:38:34.738Z,7.70
2022-09-10T06:41:05.752Z,7.95
2022-09-10T06:43:41.549Z,8.68
2022-09-10T06:46:50.951Z,6.78
2022-09-10T06:49:07.267Z,8.20
2022-09-10T06:51:39.673Z,7.50
2022-09-10T06:54:11.028Z,7.75
2022-09-10T06:56:38.556Z,7.38
2022-09-10T06:59:06.339Z,7.78
2022-09-10T07:01:43.340Z,8.40
2022-09-10T07:04:11.422Z,8.90
2022-09-10T07:06:39.134Z,8.98
2022-09-10T07:09:12.388Z,6.82
2022-09-10T07:11:57.437Z,9.10
2022-09-10T07:14:25.536Z,8.50
2022-09-10T07:16:53.398Z,8.43
2022-09-10T07:19:23.877Z,7.38
2022-09-10T07:21:51.852Z,7.93
2022-09-10T07:24:21.367Z,6.85
2022-09-10T07:27:02.840Z,7.32
2022-09-10T07:29:31.033Z,9.40
2022-09-10T07:31:59.042Z,7.43
2022-09-10T07:34:27.954Z,7.90
2022-09-10T07:36:56.640Z,6.82
2022-09-10T07:39:26.831Z,7.85
2022-09-10T07:41:56.849Z,6.40
2022-09-10T07:44:28.155Z,8.20
2022-09-10T07:47:01.476Z,7.45
2022-09-10T07:49:29.119Z,8.63
2022-09-10T07:51:59.932Z,7.07
2022-09-10T07:54:33.802Z,7.55
2022-09-10T07:57:01.673Z,9.55
2022-09-10T07:59:30.126Z,8.20
2022-09-10T08:02:01.145Z,7.97
2022-09-10T08:04:35.908Z,7.57
2022-09-10T08:07:05.864Z,8.30
2022-09-10T08:09:37.581Z,9.13
2022-09-10T08:12:07.591Z,8.55
2022-09-10T08:14:37.948Z,8.27
2022-09-10T08:17:06.010Z,8.25
2022-09-10T08:19:39.699Z,7.85
2022-09-10T08:22:12.709Z,7.07
2022-09-10T08:24:47.724Z,9.68
2022-09-10T08:27:16.806Z,8.23
2022-09-10T08:29:44.754Z,8.63
2022-09-10T08:32:13.199Z,7.22
2022-09-10T08:34:41.559Z,7.13
2022-09-10T08:37:12.357Z,7.53
2022-09-10T08:39:40.489Z,7.88
2022-09-10T08:42:17.272Z,8.23
2022-09-10T08:44:50.118Z,8.40
2022-09-10T08:47:30.932Z,7.38
2022-09-10T08:50:11.014Z,7.55
2022-09-10T08:52:44.738Z,7.95
2022-09-10T08:55:27.267Z,7.65
2022-09-10T08:58:00.329Z,7.80
2022-09-10T09:00:34.498Z,7.95
2022-09-10T09:03:12.111Z,8.55
2022-09-10T09:05:47.387Z,12.57
2022-09-10T09:08:18.704Z,12.35
2022-09-10T09:10:50.856Z,10.98
2022-09-10T09:13:47.934Z,9.82
2022-09-10T09:16:29.752Z,11.30
2022-09-10T09:21:43.892Z,9.75
2022-09-10T09:24:23.316Z,9.45
2022-09-10T09:26:57.592Z,9.20
2022-09-10T09:32:04.014Z,8.43
2022-09-10T09:34:37.271Z,10.10
2022-09-10T09:37:16.569Z,8.75
2022-09-10T09:39:54.077Z,9.60
2022-09-10T09:42:28.924Z,9.02
2022-09-10T09:45:04.200Z,10.10
2022-09-10T09:47:31.932Z,9.82
2022-09-10T09:50:00.267Z,10.07
2022-09-10T09:52:31.711Z,8.95
2022-09-10T09:55:15.513Z,7.63
2022-09-10T09:57:43.659Z,6.80
2022-09-10T10:00:35.991Z,7.55
2022-09-10T10:03:16.612Z,8.43
2022-09-10T10:05:44.348Z,7.55
2022-09-10T10:08:30.036Z,6.90
2022-09-10T10:10:58.704Z,6.65
2022-09-10T10:13:26.471Z,10.38
2022-09-10T10:15:55.478Z,7.07
2022-09-10T10:18:32.561Z,10.23
2022-09-10T10:21:16.144Z,6.38
2022-09-10T10:23:44.419Z,7.97
2022-09-10T10:26:33.631Z,11.02
2022-09-10T10:29:06.708Z,6.13
2022-09-10T10:31:42.360Z,7.93
2022-09-10T10:34:32.779Z,5.70
2022-09-10T10:37:08.275Z,8.10
2022-09-10T10:39:51.616Z,8.95
2022-09-10T10:42:28.801Z,7.43
2022-09-10T10:45:12.475Z,7.25
2022-09-10T10:47:48.419Z,6.28
2022-09-10T10:50:29.607Z,6.95
2022-09-10T10:53:22.678Z,6.17
2022-09-10T10:55:55.284Z,7.28
2022-09-10T10:58:37.538Z,6.13
2022-09-10T11:01:08.328Z,6.95
2022-09-10T11:03:44.772Z,5.95
2022-09-10T11:06:15.804Z,7.13
2022-09-10T11:08:50.177Z,6.67
2022-09-10T11:11:21.789Z,5.57
2022-09-10T11:13:54.552Z,6.00
2022-09-10T11:16:29.174Z,6.72
2022-09-10T11:19:03.087Z,5.40
2022-09-10T11:21:38.507Z,7.22
2022-09-10T11:24:16.323Z,5.97
2022-09-10T11:26:49.118Z,6.45
2022-09-10T11:29:32.412Z,5.60
2022-09-10T11:32:07.172Z,5.30
2022-09-10T11:34:47.684Z,7.03
2022-09-10T11:37:20.859Z,6.72
2022-09-10T11:39:52.403Z,6.97
2022-09-10T11:42:24.638Z,5.80
2022-09-10T11:45:00.454Z,5.88
2022-09-10T11:47:33.097Z,4.97
2022-09-10T11:50:07.335Z,5.32
2022-09-10T11:52:35.757Z,5.45
2022-09-10T11:55:08.341Z,4.85
2022-09-10T11:57:47.642Z,6.15
2022-09-10T12:00:17.922Z,6.70
2022-09-10T12:03:28.286Z,5.30
2022-09-10T12:06:03.634Z,5.28
2022-09-10T12:08:48.405Z,4.72
2022-09-10T12:11:24.817Z,5.20
2022-09-10T12:13:52.574Z,7.10
2022-09-10T12:16:29.343Z,5.38
2022-09-10T12:18:59.394Z,5.18
2022-09-10T12:21:36.437Z,6.50
2022-09-10T12:24:19.127Z,5.90
2022-09-10T12:26:46.818Z,5.13
2022-09-10T12:29:33.520Z,7.20
2022-09-10T12:32:30.218Z,5.38
2022-09-10T12:35:46.739Z,7.03
2022-09-10T12:38:56.836Z,5.57
2022-09-10T12:41:56.561Z,5.60
2022-09-10T12:44:54.073Z,4.78
2022-09-10T12:47:43.614Z,6.47
2022-09-10T12:50:29.544Z,7.10
2022-09-10T12:53:48.103Z,5.97
2022-09-10T12:56:46.297Z,6.15
2022-09-10T12:59:41.236Z,6.70
2022-09-10T13:02:22.469Z,6.38
2022-09-10T13:04:57.106Z,5.07
2022-09-10T13:07:27.863Z,6.13
2022-09-10T13:10:01.859Z,5.45
2022-09-10T13:12:34.624Z,5.15
2022-09-10T13:15:03.658Z,3.67
2022-09-10T13:17:40.742Z,4.25
2022-09-10T13:20:28.850Z,4.57
2022-09-10T13:22:58.898Z,4.85
2022-09-10T13:25:34.816Z,4.32
2022-09-10T13:28:04.643Z,4.93
2022-09-10T13:30:32.469Z,5.28
2022-09-10T13:33:04.830Z,4.35
2022-09-10T13:36:05.447Z,4.63
2022-09-10T13:38:59.695Z,4.72
2022-09-10T13:41:49.907Z,5.57
2022-09-10T13:44:46.663Z,5.57
2022-09-10T13:47:20.215Z,7.45
2022-09-10T13:49:54.013Z,5.90
2022-09-10T13:52:26.423Z,5.93
2022-09-10T13:54:56.516Z,6.95
2022-09-10T13:57:29.380Z,5.78
2022-09-10T14:00:06.174Z,5.55
2022-09-10T14:02:45.739Z,5.07
2022-09-10T14:05:28.255Z,5.97
2022-09-10T14:07:58.796Z,4.55
2022-09-10T14:10:26.789Z,4.95
2022-09-10T14:12:55.734Z,5.22
2022-09-10T14:15:39.963Z,6.13
2022-09-10T14:18:10.078Z,4.88
2022-09-10T14:20:38.112Z,4.57
2022-09-10T14:23:07.615Z,4.95
2022-09-10T14:25:37.084Z,4.05
2022-09-10T14:28:23.450Z,4.55
2022-09-10T14:31:13.707Z,5.78
2022-09-10T14:33:41.559Z,5.13
2022-09-10T14:36:18.166Z,4.75
2022-09-10T14:38:54.478Z,5.55
2022-09-10T14:41:24.596Z,4.78
2022-09-10T14:44:16.194Z,6.07
2022-09-10T14:46:51.268Z,6.00
2022-09-10T14:49:20.615Z,7.45
2022-09-10T14:51:48.195Z,6.35
2022-09-10T14:54:15.860Z,9.30
2022-09-10T14:56:46.159Z,7.05
2022-09-10T14:59:16.363Z,6.88
2022-09-10T15:01:46.419Z,5.82
2022-09-10T15:04:17.239Z,5.00
2022-09-10T15:06:45.065Z,5.60
2022-09-10T15:09:13.567Z,5.18
2022-09-10T15:11:50.407Z,5.40
2022-09-10T15:14:19.214Z,4.95
2022-09-10T15:16:46.776Z,4.90
2022-09-10T15:19:15.672Z,4.70
2022-09-10T15:21:43.568Z,5.18
2022-09-10T15:24:15.397Z,4.85
2022-09-10T15:29:11.577Z,4.90
2022-09-10T15:31:39.735Z,5.05
2022-09-10T15:34:09.418Z,5.47
2022-09-10T15:36:39.976Z,5.78
2022-09-10T15:39:09.235Z,5.32
2022-09-10T15:41:41.831Z,5.75
2022-09-10T15:44:09.577Z,5.32
2022-09-10T15:46:40.940Z,5.18
2022-09-10T15:49:08.978Z,5.60
2022-09-10T15:51:37.901Z,5.95
2022-09-10T15:54:06.088Z,5.72
2022-09-10T15:56:34.068Z,5.85
2022-09-10T15:59:01.826Z,5.57
2022-09-10T16:01:29.704Z,5.93
2022-09-10T16:03:59.367Z,5.32
2022-09-10T16:06:28.321Z,5.47
2022-09-10T16:09:01.781Z,6.35
2022-09-10T16:11:31.017Z,5.63
2022-09-10T16:14:03.592Z,5.95
2022-09-10T16:16:34.171Z,5.63
2022-09-10T16:19:02.044Z,6.93
2022-09-10T16:21:31.992Z,6.18
2022-09-10T16:24:02.188Z,5.97
2022-09-10T16:26:31.955Z,5.50
2022-09-10T16:29:01.616Z,6.30
2022-09-10T16:31:31.158Z,5.70
2022-09-10T16:34:00.603Z,5.20
2022-09-10T16:36:28.269Z,5.65
2022-09-10T16:38:57.751Z,5.70
2022-09-10T16:41:26.974Z,7.65
2022-09-10T16:43:55.485Z,5.95
2022-09-10T16:46:23.357Z,5.93
2022-09-10T16:48:53.123Z,5.30
2022-09-10T16:51:23.172Z,5.22
2022-09-10T16:53:55.676Z,5.70
2022-09-10T16:56:24.019Z,5.50
2022-09-10T16:58:53.018Z,5.53
2022-09-10T17:01:21.312Z,5.53
2022-09-10T17:03:50.681Z,5.15
2022-09-10T17:06:20.039Z,5.65
2022-09-10T17:08:48.928Z,7.22
2022-09-10T17:11:17.971Z,6.95
2022-09-10T17:13:46.247Z,6.68
2022-09-10T17:16:24.803Z,6.82
2022-09-10T17:18:58.854Z,6.22
2022-09-10T17:21:26.984Z,6.70
2022-09-10T17:23:55.072Z,6.85
2022-09-10T17:26:24.205Z,6.45
2022-09-10T17:28:56.303Z,6.88
2022-09-10T17:31:27.367Z,6.38
2022-09-10T17:33:55.506Z,6.67
2022-09-10T17:36:25.125Z,6.95
2022-09-10T17:38:53.907Z,6.05
2022-09-10T17:41:22.960Z,6.53
2022-09-10T17:43:50.950Z,6.35
2022-09-10T17:46:21.361Z,6.63
2022-09-10T17:48:51.319Z,6.35
2022-09-10T17:51:22.282Z,6.45
2022-09-10T17:53:50.248Z,6.22
2022-09-10T17:56:19.651Z,6.15
2022-09-10T17:58:48.600Z,6.20
2022-09-10T18:01:23.361Z,6.57
2022-09-10T18:03:53.267Z,6.00
2022-09-10T18:06:22.253Z,5.68
2022-09-10T18:08:51.469Z,6.47
2022-09-10T18:11:21.112Z,5.82
2022-09-10T18:13:51.918Z,6.18
2022-09-10T18:16:22.242Z,7.35
2022-09-10T18:18:55.396Z,7.07
2022-09-10T18:21:25.024Z,6.43
2022-09-10T18:23:53.913Z,6.82
2022-09-10T18:26:23.987Z,6.00
2022-09-10T18:28:57.172Z,6.80
2022-09-10T18:31:25.296Z,6.60
2022-09-10T18:33:55.673Z,6.15
2022-09-10T18:36:25.036Z,7.07
2022-09-10T18:38:53.051Z,7.78
2022-09-10T18:41:22.824Z,7.13
2022-09-10T18:43:51.419Z,6.90
2022-09-10T18:46:19.991Z,6.70
2022-09-10T18:48:48.139Z,6.18
2022-09-10T18:51:20.374Z,5.88
2022-09-10T18:53:49.541Z,5.65
2022-09-10T18:56:19.008Z,6.05
2022-09-10T18:58:50.368Z,6.15
2022-09-10T19:01:19.162Z,6.80
2022-09-10T19:03:48.566Z,7.53
2022-09-10T19:06:19.325Z,6.30
2022-09-10T19:08:48.707Z,6.57
2022-09-10T19:11:18.794Z,5.95
2022-09-10T19:13:50.160Z,6.28
2022-09-10T19:16:18.765Z,7.15
2022-09-10T19:18:50.833Z,7.00
2022-09-10T19:21:20.253Z,6.65
2022-09-10T19:23:48.374Z,6.70
2022-09-10T19:26:16.972Z,7.03
2022-09-10T19:28:45.069Z,7.20
2022-09-10T19:31:15.359Z,7.40
2022-09-10T19:33:43.269Z,6.90
2022-09-10T19:36:12.815Z,7.53
2022-09-10T19:38:42.198Z,7.40
2022-09-10T19:41:12.060Z,7.50
2022-09-10T19:43:41.230Z,8.65
2022-09-10T19:46:11.000Z,8.30
2022-09-10T19:48:39.088Z,8.10
2022-09-10T19:51:09.931Z,7.50
2022-09-10T19:53:38.447Z,8.45
2022-09-10T19:56:09.420Z,8.20
2022-09-10T19:58:38.184Z,8.07
2022-09-10T20:01:09.875Z,8.00
2022-09-10T20:03:37.902Z,8.60
2022-09-10T20:06:05.830Z,8.32
2022-09-10T20:08:35.144Z,8.40
2022-09-10T20:11:05.395Z,8.93
2022-09-10T20:13:34.404Z,8.85
2022-09-10T20:16:02.798Z,8.00
2022-09-10T20:18:32.203Z,7.72
2022-09-10T20:21:11.654Z,8.32
2022-09-10T20:23:39.452Z,7.40
2022-09-10T20:26:12.203Z,8.38
2022-09-10T20:28:41.518Z,7.80
2022-09-10T20:31:11.648Z,8.30
2022-09-10T20:33:42.191Z,9.00
2022-09-10T20:36:12.744Z,8.38
2022-09-10T20:38:40.458Z,8.25
2022-09-10T20:41:08.760Z,8.55
2022-09-10T20:43:37.497Z,8.07
2022-09-10T20:46:10.247Z,8.15
2022-09-10T20:48:37.904Z,9.20
2022-09-10T20:51:06.008Z,8.52
2022-09-10T20:53:36.203Z,8.63
2022-09-10T20:56:06.305Z,8.88
2022-09-10T20:58:36.496Z,8.95
2022-09-10T21:01:11.364Z,8.35
2022-09-10T21:03:39.822Z,8.82
2022-09-10T21:06:08.438Z,8.55
2022-09-10T21:08:36.381Z,7.82
2022-09-10T21:11:05.571Z,10.02
2022-09-10T21:13:34.230Z,7.90
2022-09-10T21:16:11.736Z,8.68
2022-09-10T21:18:41.100Z,8.48
2022-09-10T21:21:10.105Z,8.82
2022-09-10T21:23:42.864Z,9.80
2022-09-10T21:26:11.084Z,9.55
2022-09-10T21:28:38.743Z,8.55
2022-09-10T21:31:07.487Z,10.15
2022-09-10T21:33:37.789Z,8.80
2022-09-10T21:36:07.490Z,9.45
2022-09-10T21:38:35.879Z,10.00
2022-09-10T21:41:05.001Z,9.52
2022-09-10T21:43:34.543Z,9.95
2022-09-10T21:46:03.583Z,10.20
2022-09-10T21:48:32.129Z,10.43
2022-09-10T21:51:05.093Z,10.95
2022-09-10T21:53:32.928Z,10.73
2022-09-10T21:56:02.487Z,9.52
2022-09-10T21:58:32.242Z,9.60
2022-09-10T22:01:00.221Z,10.73
2022-09-10T22:03:28.254Z,10.68
2022-09-10T22:06:06.977Z,10.25
2022-09-10T22:08:35.028Z,9.48
2022-09-10T22:11:07.277Z,10.50
2022-09-10T22:13:36.092Z,11.40
2022-09-10T22:16:03.737Z,12.48
2022-09-10T22:18:31.658Z,11.52
2022-09-10T22:21:00.824Z,10.52
2022-09-10T22:23:32.148Z,10.85
2022-09-10T22:26:04.079Z,10.70
2022-09-10T22:31:07.428Z,10.15
2022-09-10T22:33:35.247Z,10.70
2022-09-10T22:36:13.391Z,12.38
2022-09-10T22:38:43.153Z,11.55
2022-09-10T22:41:14.314Z,11.15
2022-09-10T22:43:42.693Z,11.07
2022-09-10T22:46:11.643Z,11.30
2022-09-10T22:48:42.440Z,12.35
2022-09-10T22:51:11.826Z,12.07
2022-09-10T22:53:42.363Z,12.40
2022-09-10T22:56:10.897Z,11.77
2022-09-10T22:58:39.577Z,11.23
2022-09-10T23:01:09.477Z,10.73
2022-09-10T23:03:38.834Z,12.80
2022-09-10T23:06:08.971Z,12.55
2022-09-10T23:08:38.019Z,12.75
2022-09-10T23:11:12.129Z,12.40
2022-09-10T23:13:40.953Z,12.50
2022-09-10T23:16:13.023Z,10.98
2022-09-10T23:18:41.539Z,9.95
2022-09-10T23:21:09.290Z,12.57
2022-09-10T23:23:37.057Z,12.20
2022-09-10T23:26:06.924Z,11.80
2022-09-10T23:28:35.991Z,12.75
2022-09-10T23:31:08.891Z,14.07
2022-09-10T23:33:36.521Z,12.23
2022-09-10T23:36:04.305Z,11.50
2022-09-10T23:38:34.997Z,11.70
2022-09-10T23:41:02.981Z,13.43
2022-09-10T23:43:30.900Z,14.00
2022-09-10T23:46:00.221Z,14.90
2022-09-10T23:48:28.211Z,12.40
2022-09-10T23:50:57.052Z,11.60
2022-09-10T23:53:25.830Z,12.40
2022-09-10T23:55:54.013Z,16.17
2022-09-10T23:58:22.379Z,13.60
